createdAt,value
2023-01-20T01:19:54.415Z,97319.95
2023-01-20T01:22:21.733Z,97336.35
2023-01-20T01:24:48.789Z,97338.99
2023-01-20T01:27:15.766Z,97337.94
2023-01-20T01:29:42.787Z,97343.39
2023-01-20T01:32:09.917Z,97338.00
2023-01-20T01:34:37.062Z,97336.82
2023-01-20T01:37:04.044Z,97353.90
2023-01-20T01:39:31.103Z,97364.79
2023-01-20T01:41:58.057Z,97376.08
2023-01-20T01:44:26.274Z,97395.48
2023-01-20T01:46:53.121Z,97409.67
2023-01-20T01:49:25.477Z,97410.52
2023-01-20T01:51:59.732Z,97404.13
2023-01-20T01:54:30.145Z,97394.09
2023-01-20T01:56:57.116Z,97393.31
2023-01-20T01:59:24.029Z,97398.15
2023-01-20T02:01:52.509Z,97412.38
2023-01-20T02:04:23.428Z,97428.90
2023-01-20T02:07:00.650Z,97439.55
2023-01-20T02:09:27.936Z,97450.80
2023-01-20T02:11:57.453Z,97452.61
2023-01-20T02:14:27.507Z,97450.61
2023-01-20T02:17:16.494Z,97451.55
2023-01-20T02:20:01.884Z,97459.05
2023-01-20T02:22:31.933Z,97468.46
2023-01-20T02:25:26.685Z,97472.13
2023-01-20T02:28:15.821Z,97467.90
2023-01-20T02:31:04.460Z,97468.70
2023-01-20T02:33:41.049Z,97474.40
2023-01-20T02:36:13.594Z,97485.88
2023-01-20T02:38:40.433Z,97501.70
2023-01-20T02:41:14.029Z,97497.84
2023-01-20T02:43:44.131Z,97490.52
2023-01-20T02:46:16.701Z,97493.98
2023-01-20T02:49:02.442Z,97497.40
2023-01-20T02:51:33.438Z,97498.11
2023-01-20T02:54:02.706Z,97492.02
2023-01-20T02:56:29.987Z,97491.23
2023-01-20T02:58:59.445Z,97496.80
2023-01-20T03:01:33.441Z,97495.48
2023-01-20T03:04:01.464Z,97488.77
2023-01-20T03:06:30.637Z,97487.77
2023-01-20T03:08:58.894Z,97485.76
2023-01-20T03:11:25.784Z,97488.30
2023-01-20T03:14:04.257Z,97491.23
2023-01-20T03:16:31.209Z,97493.40
2023-01-20T03:18:58.165Z,97510.66
2023-01-20T03:21:25.127Z,97512.79
2023-01-20T03:23:55.788Z,97507.20
2023-01-20T03:26:23.256Z,97505.91
2023-01-20T03:28:50.474Z,97507.63
2023-01-20T03:31:26.551Z,97493.94
2023-01-20T03:33:54.966Z,97505.35
2023-01-20T03:36:23.796Z,97517.17
2023-01-20T03:38:50.765Z,97520.55
2023-01-20T03:41:30.399Z,97528.65
2023-01-20T03:44:10.987Z,97538.33
2023-01-20T03:47:10.490Z,97542.79
2023-01-20T03:49:45.181Z,97558.59
2023-01-20T03:52:21.612Z,97574.79
2023-01-20T03:55:00.862Z,97575.52
2023-01-20T03:57:32.273Z,97578.95
2023-01-20T03:59:59.163Z,97574.71
2023-01-20T04:02:26.226Z,97565.02
2023-01-20T07:19:04.529Z,97690.81
2023-01-20T07:21:31.746Z,97701.27
2023-01-20T07:24:02.412Z,97699.73
2023-01-20T07:26:29.542Z,97702.01
2023-01-20T07:28:58.264Z,97698.34
2023-01-20T07:31:26.576Z,97693.20
2023-01-20T07:33:57.079Z,97699.20
2023-01-20T07:36:24.056Z,97699.48
2023-01-20T07:38:50.997Z,97700.77
2023-01-20T07:41:20.218Z,97704.52
2023-01-20T07:43:51.406Z,97700.40
2023-01-20T07:46:18.712Z,97702.02
2023-01-20T07:48:45.737Z,97706.21
2023-01-20T07:51:14.095Z,97709.33
2023-01-20T07:53:48.487Z,97716.98
2023-01-20T07:56:16.209Z,97721.42
2023-01-20T07:58:45.453Z,97715.89
2023-01-20T08:01:18.262Z,97706.65
2023-01-20T08:10:05.297Z,97706.75
2023-01-20T08:18:45.770Z,97720.23
2023-01-20T08:21:23.812Z,97720.47
2023-01-20T08:23:51.095Z,97720.79
2023-01-20T08:26:19.527Z,97720.92
2023-01-20T08:28:46.624Z,97723.34
2023-01-20T08:31:15.750Z,97721.56
2023-01-20T08:33:43.124Z,97732.77
2023-01-20T08:36:12.906Z,97737.39
2023-01-20T08:38:40.395Z,97747.56
2023-01-20T08:41:12.549Z,97754.26
2023-01-20T08:43:39.421Z,97757.46
2023-01-20T08:46:08.746Z,97756.74
2023-01-20T08:48:36.103Z,97757.87
2023-01-20T08:51:07.887Z,97756.78
2023-01-20T08:53:35.234Z,97756.15
2023-01-20T08:56:02.869Z,97764.02
2023-01-20T08:58:30.069Z,97764.80
2023-01-20T09:00:56.953Z,97763.65
2023-01-20T09:03:23.969Z,97755.39
2023-01-20T09:05:50.986Z,97761.61
2023-01-20T09:08:17.977Z,97762.01
2023-01-20T09:10:45.620Z,97753.64
2023-01-20T09:13:12.723Z,97748.27
2023-01-20T09:15:39.691Z,97739.77
2023-01-20T09:18:06.657Z,97736.79
2023-01-20T09:20:33.589Z,97738.90
2023-01-20T09:23:03.800Z,97738.11
2023-01-20T09:25:30.692Z,97737.40
2023-01-20T09:28:01.588Z,97735.77
2023-01-20T09:30:28.645Z,97736.88
2023-01-20T09:32:58.125Z,97737.23
2023-01-20T09:35:25.324Z,97733.28
2023-01-20T09:38:12.219Z,97731.53
2023-01-20T09:41:23.747Z,97722.34
2023-01-20T09:44:07.051Z,97718.38
2023-01-20T09:46:46.377Z,97712.32
2023-01-20T09:49:52.004Z,97706.41
2023-01-20T09:52:46.278Z,97698.86
2023-01-20T09:55:16.954Z,97691.82
2023-01-20T09:57:46.729Z,97691.80
2023-01-20T10:00:17.524Z,97693.63
2023-01-20T10:02:46.172Z,97691.48
2023-01-20T13:33:37.531Z,97603.81
2023-01-20T13:36:19.539Z,97597.59
2023-01-20T13:38:48.050Z,97602.44
2023-01-20T13:41:49.035Z,97601.08
2023-01-20T13:44:38.290Z,97602.05
2023-01-20T13:47:09.840Z,97602.27
2023-01-20T13:49:57.028Z,97606.48
2023-01-20T13:52:52.345Z,97603.13
2023-01-20T13:55:34.369Z,97592.86
2023-01-20T13:58:02.331Z,97587.85
2023-01-20T14:00:32.598Z,97578.46
2023-01-20T14:03:00.113Z,97579.66
2023-01-20T14:05:35.113Z,97572.17
2023-01-20T14:08:04.485Z,97569.91
2023-01-20T14:10:34.749Z,97568.30
2023-01-20T14:13:13.026Z,97561.02
2023-01-20T14:15:44.487Z,97558.37
2023-01-20T14:18:18.666Z,97552.77
2023-01-20T14:21:30.365Z,97547.49
2023-01-20T14:24:00.676Z,97545.56
2023-01-20T14:26:32.895Z,97543.16
2023-01-20T14:29:03.345Z,97536.08
2023-01-20T14:31:43.133Z,97536.34
2023-01-20T14:34:41.650Z,97537.07
2023-01-20T14:37:35.704Z,97540.81
2023-01-20T14:40:11.997Z,97540.73
2023-01-20T14:42:40.130Z,97541.20
2023-01-20T14:45:20.676Z,97548.18
2023-01-20T14:47:47.720Z,97547.84
2023-01-20T14:50:16.150Z,97553.71
2023-01-20T14:52:43.448Z,97549.00
2023-01-20T14:55:56.376Z,97545.18
2023-01-20T14:58:24.473Z,97545.45
2023-01-20T15:00:51.680Z,97543.04
2023-01-20T15:03:30.938Z,97540.77
2023-01-20T15:06:04.141Z,97549.24
2023-01-20T15:08:34.135Z,97571.08
2023-01-20T15:11:13.809Z,97580.91
2023-01-20T15:13:41.594Z,97564.02
2023-01-20T15:16:28.988Z,97559.08
2023-01-20T15:19:13.546Z,97552.87
2023-01-20T15:21:51.927Z,97546.14
2023-01-20T15:24:22.467Z,97536.69
2023-01-20T15:26:51.215Z,97537.64
2023-01-20T15:29:22.789Z,97537.24
2023-01-20T15:31:51.502Z,97531.97
2023-01-20T15:34:18.942Z,97526.69
2023-01-20T15:36:52.142Z,97516.66
2023-01-20T15:39:20.695Z,97516.14
2023-01-20T15:41:59.477Z,97519.11
2023-01-20T15:44:27.180Z,97519.02
2023-01-20T15:46:56.943Z,97516.05
2023-01-20T15:49:25.664Z,97521.27
2023-01-20T15:51:53.138Z,97524.05
2023-01-20T15:54:26.753Z,97521.24
2023-01-20T15:56:58.609Z,97526.39
2023-01-20T15:59:25.986Z,97524.52
2023-01-20T16:01:53.028Z,97515.64
2023-01-20T19:14:45.957Z,97370.70
2023-01-20T19:17:13.101Z,97369.60
2023-01-20T19:19:40.442Z,97377.67
2023-01-20T19:22:07.478Z,97377.96
2023-01-20T19:24:34.983Z,97380.71
2023-01-20T19:27:03.874Z,97369.80
2023-01-20T19:29:32.042Z,97369.98
2023-01-20T19:31:59.906Z,97372.67
2023-01-20T19:34:30.832Z,97364.90
2023-01-20T19:37:01.141Z,97359.20
2023-01-20T19:39:29.903Z,97360.66
2023-01-20T19:41:57.633Z,97358.02
2023-01-20T19:44:26.473Z,97354.61
2023-01-20T19:46:59.665Z,97349.34
2023-01-20T19:49:28.304Z,97352.71
2023-01-20T19:51:56.392Z,97359.27
2023-01-20T19:54:37.678Z,97368.46
2023-01-20T19:57:05.965Z,97365.91
2023-01-20T19:59:33.177Z,97356.61
2023-01-20T20:02:01.113Z,97349.09
2023-01-20T20:04:31.571Z,97350.48
2023-01-20T20:06:59.109Z,97355.25
2023-01-20T20:09:27.051Z,97353.66
2023-01-20T20:11:54.777Z,97353.23
2023-01-20T20:14:22.232Z,97351.37
2023-01-20T20:16:49.731Z,97345.48
2023-01-20T20:19:18.513Z,97350.89
2023-01-20T20:21:45.830Z,97347.43
2023-01-20T20:24:14.270Z,97344.88
2023-01-20T20:26:41.710Z,97337.64
2023-01-20T20:29:08.699Z,97342.39
2023-01-20T20:31:38.052Z,97348.41
2023-01-20T20:34:05.527Z,97352.95
2023-01-20T20:36:33.689Z,97353.52
2023-01-20T20:39:01.878Z,97353.20
2023-01-20T20:41:32.060Z,97350.08
2023-01-20T20:43:59.663Z,97347.61
2023-01-20T20:46:26.686Z,97346.71
2023-01-20T20:48:59.444Z,97348.14
2023-01-20T20:51:26.835Z,97352.77
2023-01-20T20:53:58.192Z,97355.70
2023-01-20T20:56:28.359Z,97348.99
2023-01-20T20:59:02.061Z,97346.88
2023-01-20T21:01:31.377Z,97346.33
2023-01-20T21:04:05.869Z,97351.42
2023-01-20T21:06:33.090Z,97348.97
2023-01-20T21:09:00.284Z,97344.55
2023-01-20T21:11:27.474Z,97347.28
2023-01-20T21:13:54.601Z,97345.33
2023-01-20T21:16:23.424Z,97342.76
2023-01-20T21:18:55.159Z,97336.62
2023-01-20T21:21:23.140Z,97336.69
2023-01-20T21:23:56.187Z,97344.46
2023-01-20T21:26:24.018Z,97348.05
2023-01-20T21:28:51.656Z,97346.39
2023-01-20T21:31:23.471Z,97352.50
2023-01-20T21:33:54.838Z,97355.30
2023-01-20T21:36:21.861Z,97346.15
2023-01-20T21:38:49.216Z,97345.49
2023-01-20T21:41:16.665Z,97341.09
2023-01-20T21:44:03.249Z,97343.58
2023-01-20T21:46:38.197Z,97339.73
2023-01-20T21:49:50.840Z,97341.13
2023-01-20T21:52:37.877Z,97342.55
2023-01-20T21:55:05.843Z,97332.06
2023-01-20T21:58:48.065Z,97334.70
2023-01-20T22:01:15.131Z,97333.74
2023-01-20T22:03:42.081Z,97329.38
2023-01-20T23:20:25.218Z,97315.41
2023-01-20T23:22:52.312Z,97315.25
2023-01-20T23:25:19.185Z,97312.76
2023-01-20T23:27:46.174Z,97313.45
2023-01-20T23:30:13.246Z,97318.18
2023-01-20T23:32:40.185Z,97312.98
2023-01-20T23:35:07.371Z,97305.45
2023-01-20T23:37:34.282Z,97308.92
2023-01-20T23:40:01.252Z,97302.95
2023-01-20T23:42:28.315Z,97307.11
2023-01-20T23:44:56.678Z,97311.14
2023-01-20T23:47:23.713Z,97310.16
2023-01-20T23:49:51.235Z,97303.17
2023-01-20T23:52:18.216Z,97308.61
2023-01-20T23:54:45.233Z,97309.38
2023-01-20T23:57:12.306Z,97312.77
2023-01-20T23:59:39.507Z,97322.70
